sensor_id;sensor_type;location;lat;lon;timestamp;pressure;altitude;pressure_sealevel;temperature;humidity
47985;BME280;33753;52.912;-7.342;2023-05-19T00:00:42;101704.47;;;12.34;100.00
47985;BME280;33753;52.912;-7.342;2023-05-19T00:03:14;101704.94;;;12.30;100.00
47985;BME280;33753;52.912;-7.342;2023-05-19T00:05:44;101699.81;;;12.26;100.00
47985;BME280;33753;52.912;-7.342;2023-05-19T00:08:13;101697.72;;;12.20;100.00
47985;BME280;33753;52.912;-7.342;2023-05-19T00:10:43;101697.31;;;12.15;100.00
47985;BME280;33753;52.912;-7.342;2023-05-19T00:13:12;101698.91;;;12.08;100.00
47985;BME280;33753;52.912;-7.342;2023-05-19T00:15:40;101698.66;;;11.91;100.00
47985;BME280;33753;52.912;-7.342;2023-05-19T00:18:08;101716.69;;;11.83;100.00
47985;BME280;33753;52.912;-7.342;2023-05-19T00:20:39;101722.56;;;11.78;100.00
47985;BME280;33753;52.912;-7.342;2023-05-19T00:23:09;101714.31;;;11.70;100.00
47985;BME280;33753;52.912;-7.342;2023-05-19T00:25:37;101728.47;;;11.64;100.00
47985;BME280;33753;52.912;-7.342;2023-05-19T00:28:05;101724.47;;;11.58;100.00
47985;BME280;33753;52.912;-7.342;2023-05-19T00:30:34;101731.88;;;11.56;100.00
47985;BME280;33753;52.912;-7.342;2023-05-19T00:33:02;101723.50;;;11.59;100.00
47985;BME280;33753;52.912;-7.342;2023-05-19T00:35:30;101729.31;;;11.54;100.00
47985;BME280;33753;52.912;-7.342;2023-05-19T00:37:59;101732.75;;;11.56;100.00
47985;BME280;33753;52.912;-7.342;2023-05-19T00:40:28;101719.50;;;11.53;100.00
47985;BME280;33753;52.912;-7.342;2023-05-19T00:42:59;101724.94;;;11.53;100.00
47985;BME280;33753;52.912;-7.342;2023-05-19T00:45:27;101735.31;;;11.58;100.00
47985;BME280;33753;52.912;-7.342;2023-05-19T00:47:55;101728.75;;;11.61;100.00
47985;BME280;33753;52.912;-7.342;2023-05-19T00:50:24;101732.31;;;11.61;100.00
47985;BME280;33753;52.912;-7.342;2023-05-19T00:52:53;101738.72;;;11.60;100.00
47985;BME280;33753;52.912;-7.342;2023-05-19T00:55:21;101735.63;;;11.55;100.00
47985;BME280;33753;52.912;-7.342;2023-05-19T00:57:51;101740.28;;;11.63;100.00
47985;BME280;33753;52.912;-7.342;2023-05-19T01:00:19;101742.00;;;11.64;100.00
47985;BME280;33753;52.912;-7.342;2023-05-19T01:02:48;101738.47;;;11.53;100.00
47985;BME280;33753;52.912;-7.342;2023-05-19T01:05:17;101739.59;;;11.61;100.00
47985;BME280;33753;52.912;-7.342;2023-05-19T01:07:45;101737.31;;;11.56;100.00
47985;BME280;33753;52.912;-7.342;2023-05-19T01:10:19;101741.03;;;11.55;100.00
47985;BME280;33753;52.912;-7.342;2023-05-19T01:12:47;101739.47;;;11.52;100.00
47985;BME280;33753;52.912;-7.342;2023-05-19T01:15:17;101733.63;;;11.47;100.00
47985;BME280;33753;52.912;-7.342;2023-05-19T01:17:47;101731.50;;;11.41;100.00
47985;BME280;33753;52.912;-7.342;2023-05-19T01:20:23;101737.66;;;11.33;100.00
47985;BME280;33753;52.912;-7.342;2023-05-19T01:23:04;101749.34;;;11.24;100.00
47985;BME280;33753;52.912;-7.342;2023-05-19T01:28:30;101739.41;;;11.05;100.00
47985;BME280;33753;52.912;-7.342;2023-05-19T01:31:00;101734.81;;;10.96;100.00
47985;BME280;33753;52.912;-7.342;2023-05-19T01:33:30;101745.09;;;10.92;100.00
47985;BME280;33753;52.912;-7.342;2023-05-19T01:35:59;101734.41;;;10.91;100.00
47985;BME280;33753;52.912;-7.342;2023-05-19T01:38:29;101732.41;;;10.93;100.00
47985;BME280;33753;52.912;-7.342;2023-05-19T01:40:59;101723.44;;;10.92;100.00
47985;BME280;33753;52.912;-7.342;2023-05-19T01:43:33;101723.44;;;10.92;100.00
47985;BME280;33753;52.912;-7.342;2023-05-19T01:46:04;101719.44;;;10.86;100.00
47985;BME280;33753;52.912;-7.342;2023-05-19T01:48:32;101704.06;;;10.77;100.00
47985;BME280;33753;52.912;-7.342;2023-05-19T01:51:00;101706.63;;;10.69;100.00
47985;BME280;33753;52.912;-7.342;2023-05-19T01:53:29;101703.03;;;10.59;100.00
47985;BME280;33753;52.912;-7.342;2023-05-19T01:55:59;101697.50;;;10.50;100.00
47985;BME280;33753;52.912;-7.342;2023-05-19T01:58:30;101690.94;;;10.43;100.00
47985;BME280;33753;52.912;-7.342;2023-05-19T02:01:05;101693.75;;;10.32;100.00
47985;BME280;33753;52.912;-7.342;2023-05-19T02:03:41;101690.28;;;10.20;100.00
47985;BME280;33753;52.912;-7.342;2023-05-19T02:06:17;101682.16;;;10.10;100.00
47985;BME280;33753;52.912;-7.342;2023-05-19T02:08:49;101686.81;;;9.98;100.00
47985;BME280;33753;52.912;-7.342;2023-05-19T02:11:21;101687.06;;;9.85;100.00
47985;BME280;33753;52.912;-7.342;2023-05-19T02:13:52;101690.41;;;9.68;100.00
47985;BME280;33753;52.912;-7.342;2023-05-19T02:16:25;101694.91;;;9.58;100.00
47985;BME280;33753;52.912;-7.342;2023-05-19T02:18:54;101694.25;;;9.44;100.00
47985;BME280;33753;52.912;-7.342;2023-05-19T02:21:25;101701.44;;;9.34;100.00
47985;BME280;33753;52.912;-7.342;2023-05-19T02:23:53;101697.69;;;9.25;100.00
47985;BME280;33753;52.912;-7.342;2023-05-19T02:26:22;101702.91;;;9.17;100.00
47985;BME280;33753;52.912;-7.342;2023-05-19T02:28:50;101701.97;;;9.07;100.00
47985;BME280;33753;52.912;-7.342;2023-05-19T02:31:18;101707.31;;;8.97;100.00
47985;BME280;33753;52.912;-7.342;2023-05-19T02:33:48;101717.03;;;8.88;100.00
47985;BME280;33753;52.912;-7.342;2023-05-19T02:36:16;101709.59;;;8.80;100.00
47985;BME280;33753;52.912;-7.342;2023-05-19T02:38:44;101712.78;;;8.74;100.00
47985;BME280;33753;52.912;-7.342;2023-05-19T02:41:12;101725.09;;;8.67;100.00
47985;BME280;33753;52.912;-7.342;2023-05-19T02:43:41;101725.72;;;8.59;100.00
47985;BME280;33753;52.912;-7.342;2023-05-19T02:46:21;101722.69;;;8.53;100.00
47985;BME280;33753;52.912;-7.342;2023-05-19T02:48:51;101734.69;;;8.48;100.00
47985;BME280;33753;52.912;-7.342;2023-05-19T02:51:19;101727.63;;;8.47;100.00
47985;BME280;33753;52.912;-7.342;2023-05-19T02:53:48;101731.41;;;8.45;100.00
47985;BME280;33753;52.912;-7.342;2023-05-19T02:56:16;101725.06;;;8.46;100.00
47985;BME280;33753;52.912;-7.342;2023-05-19T02:58:44;101722.22;;;8.47;100.00
47985;BME280;33753;52.912;-7.342;2023-05-19T03:01:13;101724.41;;;8.42;100.00
47985;BME280;33753;52.912;-7.342;2023-05-19T03:03:42;101720.97;;;8.40;100.00
47985;BME280;33753;52.912;-7.342;2023-05-19T03:06:12;101721.97;;;8.39;100.00
47985;BME280;33753;52.912;-7.342;2023-05-19T03:08:41;101725.75;;;8.37;100.00
47985;BME280;33753;52.912;-7.342;2023-05-19T03:11:09;101712.41;;;8.35;100.00
47985;BME280;33753;52.912;-7.342;2023-05-19T03:13:37;101711.56;;;8.35;100.00
47985;BME280;33753;52.912;-7.342;2023-05-19T03:16:06;101723.44;;;8.32;100.00
47985;BME280;33753;52.912;-7.342;2023-05-19T03:18:34;101726.28;;;8.30;100.00
47985;BME280;33753;52.912;-7.342;2023-05-19T03:21:02;101726.28;;;8.30;100.00
47985;BME280;33753;52.912;-7.342;2023-05-19T03:23:33;101725.16;;;8.33;100.00
47985;BME280;33753;52.912;-7.342;2023-05-19T03:26:02;101722.22;;;8.36;100.00
47985;BME280;33753;52.912;-7.342;2023-05-19T03:28:31;101741.09;;;8.36;100.00
47985;BME280;33753;52.912;-7.342;2023-05-19T03:30:59;101742.31;;;8.32;100.00
47985;BME280;33753;52.912;-7.342;2023-05-19T03:33:33;101731.78;;;8.29;100.00
47985;BME280;33753;52.912;-7.342;2023-05-19T03:36:01;101736.44;;;8.27;100.00
47985;BME280;33753;52.912;-7.342;2023-05-19T03:38:36;101734.97;;;8.23;100.00
47985;BME280;33753;52.912;-7.342;2023-05-19T03:41:04;101732.28;;;8.11;100.00
47985;BME280;33753;52.912;-7.342;2023-05-19T03:43:33;101737.91;;;8.08;100.00
47985;BME280;33753;52.912;-7.342;2023-05-19T03:46:03;101730.84;;;8.07;100.00
47985;BME280;33753;52.912;-7.342;2023-05-19T03:48:50;101729.84;;;8.08;100.00
47985;BME280;33753;52.912;-7.342;2023-05-19T03:51:37;101734.50;;;8.06;100.00
47985;BME280;33753;52.912;-7.342;2023-05-19T03:54:18;101733.03;;;8.02;100.00
47985;BME280;33753;52.912;-7.342;2023-05-19T03:56:49;101734.38;;;7.96;100.00
47985;BME280;33753;52.912;-7.342;2023-05-19T03:59:18;101747.34;;;7.91;100.00
47985;BME280;33753;52.912;-7.342;2023-05-19T04:01:46;101750.16;;;7.90;100.00
47985;BME280;33753;52.912;-7.342;2023-05-19T04:04:14;101737.72;;;7.89;100.00
47985;BME280;33753;52.912;-7.342;2023-05-19T04:06:44;101740.41;;;7.89;100.00
47985;BME280;33753;52.912;-7.342;2023-05-19T04:09:13;101746.88;;;7.86;100.00
47985;BME280;33753;52.912;-7.342;2023-05-19T04:11:43;101754.34;;;7.83;100.00
47985;BME280;33753;52.912;-7.342;2023-05-19T04:14:11;101747.25;;;7.82;100.00
47985;BME280;33753;52.912;-7.342;2023-05-19T04:16:39;101760.72;;;7.82;100.00
47985;BME280;33753;52.912;-7.342;2023-05-19T04:19:08;101758.03;;;7.82;100.00
47985;BME280;33753;52.912;-7.342;2023-05-19T04:21:36;101755.34;;;7.82;100.00
47985;BME280;33753;52.912;-7.342;2023-05-19T04:24:05;101747.25;;;7.82;100.00
47985;BME280;33753;52.912;-7.342;2023-05-19T04:26:33;101749.81;;;7.83;100.00
47985;BME280;33753;52.912;-7.342;2023-05-19T04:29:05;101760.59;;;7.83;100.00
47985;BME280;33753;52.912;-7.342;2023-05-19T04:31:34;101765.09;;;7.83;100.00
47985;BME280;33753;52.912;-7.342;2023-05-19T04:34:05;101762.28;;;7.84;100.00
47985;BME280;33753;52.912;-7.342;2023-05-19T04:36:34;101766.59;;;7.87;100.00
47985;BME280;33753;52.912;-7.342;2023-05-19T04:39:02;101772.59;;;7.90;100.00
47985;BME280;33753;52.912;-7.342;2023-05-19T04:41:33;101765.75;;;7.86;100.00
47985;BME280;33753;52.912;-7.342;2023-05-19T04:44:05;101765.75;;;7.86;100.00
47985;BME280;33753;52.912;-7.342;2023-05-19T04:46:36;101770.25;;;7.86;100.00
47985;BME280;33753;52.912;-7.342;2023-05-19T04:49:04;101777.50;;;7.85;100.00
47985;BME280;33753;52.912;-7.342;2023-05-19T04:51:33;101777.59;;;7.84;100.00
47985;BME280;33753;52.912;-7.342;2023-05-19T04:54:01;101769.53;;;7.84;100.00
47985;BME280;33753;52.912;-7.342;2023-05-19T04:56:30;101773.94;;;7.85;100.00
47985;BME280;33753;52.912;-7.342;2023-05-19T04:59:00;101782.16;;;7.83;100.00
47985;BME280;33753;52.912;-7.342;2023-05-19T05:01:29;101783.25;;;7.81;100.00
47985;BME280;33753;52.912;-7.342;2023-05-19T05:03:59;101778.81;;;7.79;100.00
47985;BME280;33753;52.912;-7.342;2023-05-19T05:06:29;101786.06;;;7.79;100.00
47985;BME280;33753;52.912;-7.342;2023-05-19T05:08:58;101802.34;;;7.77;100.00
47985;BME280;33753;52.912;-7.342;2023-05-19T05:11:26;101802.34;;;7.77;100.00
47985;BME280;33753;52.912;-7.342;2023-05-19T05:13:55;101799.53;;;7.79;100.00
47985;BME280;33753;52.912;-7.342;2023-05-19T05:16:26;101805.50;;;7.83;100.00
47985;BME280;33753;52.912;-7.342;2023-05-19T05:18:58;101807.97;;;7.86;100.00
47985;BME280;33753;52.912;-7.342;2023-05-19T05:21:27;101810.31;;;7.90;100.00
47985;BME280;33753;52.912;-7.342;2023-05-19T05:23:58;101824.28;;;7.95;100.00
47985;BME280;33753;52.912;-7.342;2023-05-19T05:26:29;101821.19;;;8.00;100.00
47985;BME280;33753;52.912;-7.342;2023-05-19T05:29:00;101820.63;;;8.08;100.00
47985;BME280;33753;52.912;-7.342;2023-05-19T05:31:29;101827.94;;;8.17;100.00
47985;BME280;33753;52.912;-7.342;2023-05-19T05:33:58;101831.78;;;8.26;100.00
47985;BME280;33753;52.912;-7.342;2023-05-19T05:36:30;101842.66;;;8.36;100.00
47985;BME280;33753;52.912;-7.342;2023-05-19T05:39:00;101837.41;;;8.45;100.00
47985;BME280;33753;52.912;-7.342;2023-05-19T05:41:29;101843.56;;;8.59;100.00
47985;BME280;33753;52.912;-7.342;2023-05-19T05:44:07;101857.25;;;8.67;100.00
47985;BME280;33753;52.912;-7.342;2023-05-19T05:46:37;101856.53;;;8.76;100.00
47985;BME280;33753;52.912;-7.342;2023-05-19T05:49:07;101854.06;;;8.85;100.00
47985;BME280;33753;52.912;-7.342;2023-05-19T05:51:38;101849.63;;;8.95;100.00
47985;BME280;33753;52.912;-7.342;2023-05-19T05:54:14;101849.09;;;9.01;100.00
47985;BME280;33753;52.912;-7.342;2023-05-19T05:56:45;101846.50;;;9.11;100.00
47985;BME280;33753;52.912;-7.342;2023-05-19T05:59:13;101842.69;;;9.13;100.00
47985;BME280;33753;52.912;-7.342;2023-05-19T06:01:42;101852.72;;;9.23;100.00
47985;BME280;33753;52.912;-7.342;2023-05-19T06:04:12;101853.63;;;9.33;100.00
47985;BME280;33753;52.912;-7.342;2023-05-19T06:06:41;101854.88;;;9.40;100.00
47985;BME280;33753;52.912;-7.342;2023-05-19T06:09:12;101866.59;;;9.50;100.00
47985;BME280;33753;52.912;-7.342;2023-05-19T06:11:42;101880.28;;;9.59;100.00
47985;BME280;33753;52.912;-7.342;2023-05-19T06:14:10;101870.09;;;9.62;100.00
47985;BME280;33753;52.912;-7.342;2023-05-19T06:17:10;101861.66;;;9.77;100.00
47985;BME280;33753;52.912;-7.342;2023-05-19T06:19:40;101860.00;;;9.85;100.00
47985;BME280;33753;52.912;-7.342;2023-05-19T06:22:09;101861.94;;;9.95;100.00
47985;BME280;33753;52.912;-7.342;2023-05-19T06:24:37;101863.97;;;10.02;100.00
47985;BME280;33753;52.912;-7.342;2023-05-19T06:27:07;101858.88;;;10.09;100.00
47985;BME280;33753;52.912;-7.342;2023-05-19T06:29:35;101856.09;;;10.20;100.00
47985;BME280;33753;52.912;-7.342;2023-05-19T06:32:05;101855.13;;;10.31;100.00
47985;BME280;33753;52.912;-7.342;2023-05-19T06:34:34;101867.75;;;10.42;100.00
47985;BME280;33753;52.912;-7.342;2023-05-19T06:37:05;101853.41;;;10.51;100.00
47985;BME280;33753;52.912;-7.342;2023-05-19T06:39:33;101850.16;;;10.58;100.00
47985;BME280;33753;52.912;-7.342;2023-05-19T06:42:02;101849.03;;;10.70;100.00
47985;BME280;33753;52.912;-7.342;2023-05-19T06:44:56;101838.66;;;10.75;100.00
47985;BME280;33753;52.912;-7.342;2023-05-19T06:47:26;101839.69;;;10.84;100.00
47985;BME280;33753;52.912;-7.342;2023-05-19T06:49:54;101838.00;;;10.93;100.00
47985;BME280;33753;52.912;-7.342;2023-05-19T06:52:27;101820.47;;;10.97;100.00
47985;BME280;33753;52.912;-7.342;2023-05-19T06:54:56;101829.44;;;11.07;100.00
47985;BME280;33753;52.912;-7.342;2023-05-19T06:57:24;101819.47;;;11.17;100.00
47985;BME280;33753;52.912;-7.342;2023-05-19T06:59:53;101822.63;;;11.22;100.00
47985;BME280;33753;52.912;-7.342;2023-05-19T07:02:22;101827.59;;;11.27;100.00
47985;BME280;33753;52.912;-7.342;2023-05-19T07:04:51;101823.19;;;11.36;100.00
47985;BME280;33753;52.912;-7.342;2023-05-19T07:07:20;101831.16;;;11.47;100.00
47985;BME280;33753;52.912;-7.342;2023-05-19T07:09:51;101819.91;;;11.52;100.00
47985;BME280;33753;52.912;-7.342;2023-05-19T07:12:20;101829.44;;;11.66;100.00
47985;BME280;33753;52.912;-7.342;2023-05-19T07:14:49;101828.59;;;11.75;100.00
47985;BME280;33753;52.912;-7.342;2023-05-19T07:17:18;101822.53;;;11.91;100.00
47985;BME280;33753;52.912;-7.342;2023-05-19T07:19:47;101820.53;;;12.03;100.00
47985;BME280;33753;52.912;-7.342;2023-05-19T07:22:15;101827.50;;;12.15;100.00
47985;BME280;33753;52.912;-7.342;2023-05-19T07:24:44;101834.72;;;12.24;100.00
47985;BME280;33753;52.912;-7.342;2023-05-19T07:27:13;101823.69;;;12.36;100.00
47985;BME280;33753;52.912;-7.342;2023-05-19T07:29:42;101833.41;;;12.38;100.00
47985;BME280;33753;52.912;-7.342;2023-05-19T07:32:10;101832.94;;;12.43;100.00
47985;BME280;33753;52.912;-7.342;2023-05-19T07:34:39;101842.91;;;12.52;100.00
47985;BME280;33753;52.912;-7.342;2023-05-19T07:37:07;101848.72;;;12.57;100.00
47985;BME280;33753;52.912;-7.342;2023-05-19T07:39:35;101843.72;;;12.62;100.00
47985;BME280;33753;52.912;-7.342;2023-05-19T07:42:03;101847.03;;;12.56;100.00
47985;BME280;33753;52.912;-7.342;2023-05-19T07:44:33;101843.41;;;12.66;100.00
47985;BME280;33753;52.912;-7.342;2023-05-19T07:47:01;101837.38;;;12.72;100.00
47985;BME280;33753;52.912;-7.342;2023-05-19T07:49:30;101845.06;;;12.76;100.00
47985;BME280;33753;52.912;-7.342;2023-05-19T07:51:58;101842.00;;;12.89;100.00
47985;BME280;33753;52.912;-7.342;2023-05-19T07:54:27;101854.25;;;12.93;100.00
47985;BME280;33753;52.912;-7.342;2023-05-19T07:56:55;101848.63;;;13.05;100.00
47985;BME280;33753;52.912;-7.342;2023-05-19T07:59:23;101849.47;;;13.05;100.00
47985;BME280;33753;52.912;-7.342;2023-05-19T08:01:53;101849.06;;;13.18;100.00
47985;BME280;33753;52.912;-7.342;2023-05-19T08:04:21;101844.22;;;13.22;100.00
47985;BME280;33753;52.912;-7.342;2023-05-19T08:06:49;101841.13;;;13.35;100.00
47985;BME280;33753;52.912;-7.342;2023-05-19T08:09:18;101840.19;;;13.44;100.00
47985;BME280;33753;52.912;-7.342;2023-05-19T08:11:46;101842.97;;;13.52;100.00
47985;BME280;33753;52.912;-7.342;2023-05-19T08:14:15;101836.81;;;13.68;100.00
47985;BME280;33753;52.912;-7.342;2023-05-19T08:16:43;101836.22;;;13.82;100.00
47985;BME280;33753;52.912;-7.342;2023-05-19T08:19:13;101847.03;;;13.92;100.00
47985;BME280;33753;52.912;-7.342;2023-05-19T08:21:41;101839.22;;;13.97;100.00
47985;BME280;33753;52.912;-7.342;2023-05-19T08:24:10;101833.47;;;14.00;100.00
47985;BME280;33753;52.912;-7.342;2023-05-19T08:26:40;101831.22;;;14.22;100.00
47985;BME280;33753;52.912;-7.342;2023-05-19T08:29:08;101830.56;;;14.28;100.00
47985;BME280;33753;52.912;-7.342;2023-05-19T08:31:36;101818.16;;;14.34;100.00
47985;BME280;33753;52.912;-7.342;2023-05-19T08:34:05;101823.78;;;14.32;100.00
47985;BME280;33753;52.912;-7.342;2023-05-19T08:36:34;101817.38;;;14.50;100.00
47985;BME280;33753;52.912;-7.342;2023-05-19T08:39:03;101812.47;;;14.54;100.00
47985;BME280;33753;52.912;-7.342;2023-05-19T08:41:31;101810.38;;;14.82;100.00
47985;BME280;33753;52.912;-7.342;2023-05-19T08:43:59;101810.75;;;14.95;100.00
47985;BME280;33753;52.912;-7.342;2023-05-19T08:46:27;101808.75;;;15.38;100.00
47985;BME280;33753;52.912;-7.342;2023-05-19T08:48:57;101801.75;;;15.52;100.00
47985;BME280;33753;52.912;-7.342;2023-05-19T08:51:26;101788.63;;;15.81;100.00
47985;BME280;33753;52.912;-7.342;2023-05-19T08:54:01;101782.13;;;15.90;100.00
47985;BME280;33753;52.912;-7.342;2023-05-19T08:56:31;101771.53;;;16.03;100.00
47985;BME280;33753;52.912;-7.342;2023-05-19T08:58:59;101776.66;;;16.46;100.00
47985;BME280;33753;52.912;-7.342;2023-05-19T09:01:29;101784.19;;;16.67;100.00
47985;BME280;33753;52.912;-7.342;2023-05-19T09:03:58;101783.97;;;16.77;100.00
47985;BME280;33753;52.912;-7.342;2023-05-19T09:06:26;101783.53;;;16.97;100.00
47985;BME280;33753;52.912;-7.342;2023-05-19T09:08:59;101780.31;;;16.93;100.00
47985;BME280;33753;52.912;-7.342;2023-05-19T09:11:27;101776.09;;;16.82;100.00
47985;BME280;33753;52.912;-7.342;2023-05-19T09:13:56;101780.13;;;16.95;100.00
47985;BME280;33753;52.912;-7.342;2023-05-19T09:16:24;101770.84;;;17.04;100.00
47985;BME280;33753;52.912;-7.342;2023-05-19T09:18:55;101765.84;;;17.07;100.00
47985;BME280;33753;52.912;-7.342;2023-05-19T09:21:27;101757.03;;;17.20;100.00
47985;BME280;33753;52.912;-7.342;2023-05-19T09:24:02;101763.00;;;17.24;100.00
47985;BME280;33753;52.912;-7.342;2023-05-19T09:26:34;101764.34;;;17.28;100.00
47985;BME280;33753;52.912;-7.342;2023-05-19T09:29:09;101755.44;;;17.26;100.00
47985;BME280;33753;52.912;-7.342;2023-05-19T09:31:37;101757.28;;;17.34;100.00
47985;BME280;33753;52.912;-7.342;2023-05-19T09:34:15;101760.44;;;17.22;100.00
47985;BME280;33753;52.912;-7.342;2023-05-19T09:36:45;101767.09;;;17.43;100.00
47985;BME280;33753;52.912;-7.342;2023-05-19T09:39:17;101763.06;;;17.54;100.00
47985;BME280;33753;52.912;-7.342;2023-05-19T09:41:45;101764.69;;;17.63;100.00
47985;BME280;33753;52.912;-7.342;2023-05-19T09:44:20;101763.00;;;17.24;100.00
47985;BME280;33753;52.912;-7.342;2023-05-19T09:46:49;101763.22;;;17.37;100.00
47985;BME280;33753;52.912;-7.342;2023-05-19T09:49:19;101759.16;;;17.33;100.00
47985;BME280;33753;52.912;-7.342;2023-05-19T09:51:48;101759.53;;;17.30;100.00
47985;BME280;33753;52.912;-7.342;2023-05-19T09:54:18;101756.41;;;17.33;100.00
47985;BME280;33753;52.912;-7.342;2023-05-19T09:56:50;101764.09;;;17.38;100.00
47985;BME280;33753;52.912;-7.342;2023-05-19T09:59:18;101764.19;;;17.44;100.00
47985;BME280;33753;52.912;-7.342;2023-05-19T10:01:51;101763.22;;;17.37;100.00
47985;BME280;33753;52.912;-7.342;2023-05-19T10:04:21;101765.88;;;17.45;100.00
47985;BME280;33753;52.912;-7.342;2023-05-19T10:06:49;101761.59;;;17.66;100.00
47985;BME280;33753;52.912;-7.342;2023-05-19T10:09:22;101765.75;;;17.77;100.00
47985;BME280;33753;52.912;-7.342;2023-05-19T10:11:51;101763.00;;;17.77;100.00
47985;BME280;33753;52.912;-7.342;2023-05-19T10:14:21;101763.84;;;17.48;100.00
47985;BME280;33753;52.912;-7.342;2023-05-19T10:16:50;101764.59;;;17.71;100.00
47985;BME280;33753;52.912;-7.342;2023-05-19T10:19:20;101764.19;;;17.44;100.00
47985;BME280;33753;52.912;-7.342;2023-05-19T10:21:51;101773.84;;;17.55;100.00
47985;BME280;33753;52.912;-7.342;2023-05-19T10:24:19;101779.13;;;17.57;100.00
47985;BME280;33753;52.912;-7.342;2023-05-19T10:26:52;101778.97;;;17.73;100.00
47985;BME280;33753;52.912;-7.342;2023-05-19T10:29:23;101775.84;;;17.76;100.00
47985;BME280;33753;52.912;-7.342;2023-05-19T10:31:55;101782.06;;;17.70;100.00
47985;BME280;33753;52.912;-7.342;2023-05-19T10:37:19;101783.19;;;17.61;100.00
47985;BME280;33753;52.912;-7.342;2023-05-19T10:39:55;101782.16;;;17.62;100.00
47985;BME280;33753;52.912;-7.342;2023-05-19T10:42:28;101776.75;;;17.92;100.00
47985;BME280;33753;52.912;-7.342;2023-05-19T10:45:01;101782.06;;;17.70;100.00
47985;BME280;33753;52.912;-7.342;2023-05-19T10:47:39;101780.19;;;17.71;100.00
47985;BME280;33753;52.912;-7.342;2023-05-19T10:50:09;101790.44;;;17.54;100.00
47985;BME280;33753;52.912;-7.342;2023-05-19T10:52:38;101788.06;;;17.51;100.00
47985;BME280;33753;52.912;-7.342;2023-05-19T10:55:08;101790.00;;;17.65;100.00
47985;BME280;33753;52.912;-7.342;2023-05-19T10:57:54;101788.97;;;17.66;100.00
47985;BME280;33753;52.912;-7.342;2023-05-19T11:00:26;101779.66;;;17.90;100.00
47985;BME280;33753;52.912;-7.342;2023-05-19T11:03:10;101792.03;;;18.01;100.00
47985;BME280;33753;52.912;-7.342;2023-05-19T11:05:41;101795.81;;;18.00;100.00
47985;BME280;33753;52.912;-7.342;2023-05-19T11:08:13;101794.63;;;17.79;100.00
47985;BME280;33753;52.912;-7.342;2023-05-19T11:10:45;101793.22;;;17.84;100.00
47985;BME280;33753;52.912;-7.342;2023-05-19T11:13:29;101787.19;;;17.73;100.00
47985;BME280;33753;52.912;-7.342;2023-05-19T11:15:57;101793.38;;;17.67;100.00
47985;BME280;33753;52.912;-7.342;2023-05-19T11:18:30;101789.22;;;17.56;100.00
47985;BME280;33753;52.912;-7.342;2023-05-19T11:21:02;101791.50;;;17.68;100.00
47985;BME280;33753;52.912;-7.342;2023-05-19T11:23:32;101791.22;;;17.62;100.00
47985;BME280;33753;52.912;-7.342;2023-05-19T11:26:05;101796.88;;;17.61;100.00
47985;BME280;33753;52.912;-7.342;2023-05-19T11:28:38;101788.78;;;17.68;100.00
47985;BME280;33753;52.912;-7.342;2023-05-19T11:31:10;101791.13;;;17.71;100.00
47985;BME280;33753;52.912;-7.342;2023-05-19T11:33:40;101791.19;;;18.01;100.00
47985;BME280;33753;52.912;-7.342;2023-05-19T11:36:11;101789.28;;;18.16;100.00
47985;BME280;33753;52.912;-7.342;2023-05-19T11:38:39;101783.53;;;18.26;100.00
47985;BME280;33753;52.912;-7.342;2023-05-19T11:41:10;101771.44;;;18.35;100.00
47985;BME280;33753;52.912;-7.342;2023-05-19T11:43:41;101779.47;;;18.07;100.00
47985;BME280;33753;52.912;-7.342;2023-05-19T11:46:09;101774.28;;;18.27;100.00
47985;BME280;33753;52.912;-7.342;2023-05-19T11:48:38;101772.19;;;18.44;100.00
47985;BME280;33753;52.912;-7.342;2023-05-19T11:51:06;101768.75;;;18.57;100.00
47985;BME280;33753;52.912;-7.342;2023-05-19T11:53:34;101766.16;;;18.70;100.00
47985;BME280;33753;52.912;-7.342;2023-05-19T11:56:04;101772.44;;;18.86;100.00
47985;BME280;33753;52.912;-7.342;2023-05-19T11:58:32;101767.06;;;18.92;100.00
47985;BME280;33753;52.912;-7.342;2023-05-19T12:01:03;101767.34;;;18.82;100.00
47985;BME280;33753;52.912;-7.342;2023-05-19T12:03:32;101763.63;;;19.05;100.00
47985;BME280;33753;52.912;-7.342;2023-05-19T12:06:00;101758.06;;;18.62;100.00
47985;BME280;33753;52.912;-7.342;2023-05-19T12:08:31;101758.75;;;18.86;100.00
47985;BME280;33753;52.912;-7.342;2023-05-19T12:10:59;101754.03;;;18.79;100.00
47985;BME280;33753;52.912;-7.342;2023-05-19T12:13:28;101763.09;;;19.16;100.00
47985;BME280;33753;52.912;-7.342;2023-05-19T12:15:58;101752.72;;;19.40;100.00
47985;BME280;33753;52.912;-7.342;2023-05-19T12:18:35;101746.41;;;19.40;100.00
47985;BME280;33753;52.912;-7.342;2023-05-19T12:21:03;101742.09;;;19.59;100.00
47985;BME280;33753;52.912;-7.342;2023-05-19T12:23:32;101740.94;;;20.03;100.00
47985;BME280;33753;52.912;-7.342;2023-05-19T12:26:00;101741.97;;;20.50;100.00
47985;BME280;33753;52.912;-7.342;2023-05-19T12:28:28;101745.88;;;20.76;100.00
47985;BME280;33753;52.912;-7.342;2023-05-19T12:30:56;101731.44;;;20.54;100.00
47985;BME280;33753;52.912;-7.342;2023-05-19T12:33:25;101735.13;;;20.19;100.00
47985;BME280;33753;52.912;-7.342;2023-05-19T12:35:54;101731.34;;;19.85;100.00
47985;BME280;33753;52.912;-7.342;2023-05-19T12:38:23;101731.69;;;20.17;100.00
47985;BME280;33753;52.912;-7.342;2023-05-19T12:40:52;101723.09;;;20.20;100.00
47985;BME280;33753;52.912;-7.342;2023-05-19T12:43:20;101736.09;;;20.53;100.00
47985;BME280;33753;52.912;-7.342;2023-05-19T12:45:49;101732.34;;;20.68;100.00
47985;BME280;33753;52.912;-7.342;2023-05-19T12:48:20;101739.13;;;20.72;100.00
47985;BME280;33753;52.912;-7.342;2023-05-19T12:50:50;101730.72;;;21.07;100.00
47985;BME280;33753;52.912;-7.342;2023-05-19T12:53:20;101725.66;;;21.31;100.00